createdAt,value
2022-11-20T21:24:16.717Z,101553.81
2022-11-20T21:26:43.428Z,101548.00
2022-11-20T21:29:10.115Z,101550.03
2022-11-20T21:31:37.534Z,101569.16
2022-11-20T21:34:04.423Z,101559.84
2022-11-20T21:36:31.574Z,101565.53
2022-11-20T21:38:59.701Z,101571.53
2022-11-20T21:41:28.245Z,101575.47
2022-11-20T21:44:24.057Z,101582.63
2022-11-20T21:46:44.862Z,101575.66
2022-11-20T21:49:12.431Z,101579.97
2022-11-20T21:51:39.196Z,101577.66
2022-11-20T21:54:10.870Z,101590.34
2022-11-20T21:56:37.849Z,101588.16
2022-11-20T21:59:04.634Z,101587.97
2022-11-20T22:01:31.724Z,101589.00
2022-11-20T22:04:00.898Z,101578.66
2022-11-20T22:06:34.881Z,101583.34
2022-11-20T22:09:02.844Z,101591.97
2022-11-20T22:11:30.537Z,101602.81
2022-11-20T22:14:16.063Z,101599.00
2022-11-20T22:16:42.998Z,101599.00
2022-11-20T22:19:09.850Z,101597.31
2022-11-20T22:21:39.491Z,101596.84
2022-11-20T22:24:06.343Z,101595.31
2022-11-20T22:26:40.202Z,101595.31
2022-11-20T22:29:08.519Z,101600.66
2022-11-20T22:31:35.389Z,101611.50
2022-11-20T22:34:02.580Z,101611.00
2022-11-20T22:36:30.850Z,101602.34
2022-11-20T22:38:58.429Z,101598.00
2022-11-20T22:41:29.008Z,101599.16
2022-11-20T22:44:00.605Z,101591.34
2022-11-20T22:46:29.843Z,101587.34
2022-11-20T22:48:59.046Z,101582.66
2022-11-20T22:51:28.187Z,101575.34
2022-11-20T22:53:55.445Z,101575.84
2022-11-20T22:56:22.431Z,101559.16
2022-11-20T22:58:51.917Z,101561.31
2022-11-20T23:01:25.863Z,101560.31
2022-11-20T23:03:59.475Z,101564.13
2022-11-20T23:06:26.772Z,101565.81
2022-11-20T23:08:53.975Z,101569.00
2022-11-20T23:11:23.592Z,101574.34
2022-11-20T23:13:56.948Z,101567.69
2022-11-20T23:16:25.075Z,101567.69
2022-11-20T23:18:56.943Z,101573.50
2022-11-20T23:21:24.293Z,101576.66
2022-11-20T23:23:53.868Z,101578.81
2022-11-20T23:26:23.173Z,101579.69
2022-11-20T23:28:50.070Z,101579.00
2022-11-20T23:31:17.088Z,101565.47
2022-11-20T23:33:45.662Z,101568.97
2022-11-20T23:36:13.343Z,101563.31
2022-11-20T23:38:40.728Z,101572.63
2022-11-20T23:41:08.193Z,101575.28
2022-11-20T23:43:35.451Z,101592.94
2022-11-20T23:46:03.171Z,101597.13
2022-11-20T23:48:32.462Z,101599.63
2022-11-20T23:50:59.478Z,101599.44
2022-11-20T23:53:26.805Z,101597.06
2022-11-20T23:55:55.958Z,101592.03
2022-11-20T23:58:24.408Z,101587.03
